Time;durP1;ratioP1;P1;durP2;ratioP2;P2;SDS_P1;SDS_P2;PMS_P1;PMS_P2;Temp;Humidity;BMP_temperature;BMP_pressure;BME280_temperature;BME280_humidity;BME280_pressure;Samples;Min_cycle;Max_cycle;Signal;HPM_P1;HPM_P2
2023/04/03 00:01:22;;;;;;;;;;;8.00;82.10;;;;;;5055209;28;19928;-76
2023/04/03 00:03:49;;;;;;;;;;;8.00;82.20;;;;;;5054303;28;19939;-76
2023/04/03 00:06:16;;;;;;;;;;;8.00;82.10;;;;;;5057010;28;19928;-77
2023/04/03 00:08:43;;;;;;;;;;;8.00;82.10;;;;;;5055844;28;19929;-76
2023/04/03 00:11:10;;;;;;;;;;;8.00;82.00;;;;;;5050134;28;19935;-76
2023/04/03 00:13:38;;;;;;;;;;;7.90;82.00;;;;;;5052669;28;19925;-77
2023/04/03 00:16:05;;;;;;;;;;;7.90;82.10;;;;;;5057518;28;20445;-74
2023/04/03 00:18:32;;;;;;;;;;;7.90;82.00;;;;;;5056412;28;20329;-77
2023/04/03 00:20:59;;;;;;;;;;;7.90;81.90;;;;;;5053065;28;20839;-76
2023/04/03 00:23:26;;;;;;;;;;;7.90;81.80;;;;;;5055778;28;19940;-76
2023/04/03 00:25:53;;;;;;;;;;;7.90;81.70;;;;;;5053981;28;19928;-74
2023/04/03 00:28:20;;;;;;;;;;;7.90;81.70;;;;;;5059194;28;20001;-74
2023/04/03 00:30:49;;;;;;;;;;;7.80;81.60;;;;;;5054141;28;19929;-76
2023/04/03 00:33:15;;;;;;;;;;;7.80;81.60;;;;;;5055525;28;19994;-75
2023/04/03 00:35:42;;;;;;;;;;;7.80;81.60;;;;;;5059197;28;19935;-76
2023/04/03 00:38:09;;;;;;;;;;;7.80;81.60;;;;;;5060983;28;19936;-75
2023/04/03 00:40:37;;;;;;;;;;;7.80;81.60;;;;;;5057547;28;19939;-77
2023/04/03 00:43:10;;;;;;;;;;;7.80;81.60;;;;;;5054648;28;19939;-76
2023/04/03 00:45:38;;;;;;;;;;;7.70;81.60;;;;;;5059573;28;19929;-77
2023/04/03 00:48:07;;;;;;;;;;;7.80;81.60;;;;;;5057859;28;19929;-76
2023/04/03 00:50:36;;;;;;;;;;;7.70;81.40;;;;;;5056460;28;19936;-77
2023/04/03 00:53:04;;;;;;;;;;;7.70;81.50;;;;;;5053112;28;19932;-76
2023/04/03 00:55:31;;;;;;;;;;;7.70;81.40;;;;;;5054633;28;20691;-77
2023/04/03 00:57:58;;;;;;;;;;;7.70;81.20;;;;;;5060083;28;20604;-77
2023/04/03 01:00:25;;;;;;;;;;;7.70;81.30;;;;;;5064088;28;20047;-75
2023/04/03 01:02:52;;;;;;;;;;;7.70;81.30;;;;;;5053388;28;19928;-76
2023/04/03 01:05:21;;;;;;;;;;;7.70;81.40;;;;;;5055378;28;20260;-77
2023/04/03 01:07:48;;;;;;;;;;;7.70;81.40;;;;;;5059474;28;20031;-76
2023/04/03 01:10:15;;;;;;;;;;;7.60;81.30;;;;;;5056451;28;19939;-75
2023/04/03 01:12:43;;;;;;;;;;;7.60;81.40;;;;;;5059525;28;20699;-76
2023/04/03 01:15:11;;;;;;;;;;;7.60;81.40;;;;;;5053811;28;19935;-75
2023/04/03 01:17:39;;;;;;;;;;;7.60;81.50;;;;;;5057110;28;19928;-76
2023/04/03 01:20:24;;;;;;;;;;;7.60;81.50;;;;;;5056582;28;19935;-75
2023/04/03 01:22:57;;;;;;;;;;;7.60;81.50;;;;;;5057835;28;20016;-75
2023/04/03 01:25:23;;;;;;;;;;;7.60;81.50;;;;;;5052001;28;20379;-76
2023/04/03 01:27:50;;;;;;;;;;;7.50;81.50;;;;;;5054601;28;19929;-75
2023/04/03 01:30:18;;;;;;;;;;;7.50;81.60;;;;;;5057779;28;19929;-75
2023/04/03 01:32:46;;;;;;;;;;;7.60;81.60;;;;;;5057106;28;20302;-75
2023/04/03 01:35:12;;;;;;;;;;;7.50;81.60;;;;;;5055712;28;19935;-75
2023/04/03 01:37:39;;;;;;;;;;;7.50;81.60;;;;;;5052107;28;20342;-75
2023/04/03 01:40:06;;;;;;;;;;;7.50;81.60;;;;;;5056802;28;19939;-75
2023/04/03 01:42:33;;;;;;;;;;;7.50;81.70;;;;;;5060598;28;19925;-75
2023/04/03 01:45:00;;;;;;;;;;;7.50;81.80;;;;;;5052196;28;19928;-75
2023/04/03 01:47:26;;;;;;;;;;;7.40;81.70;;;;;;5051592;28;19928;-75
2023/04/03 01:49:54;;;;;;;;;;;7.50;81.80;;;;;;5050750;28;20457;-74
2023/04/03 01:52:21;;;;;;;;;;;7.40;81.80;;;;;;5060642;28;19963;-75
2023/04/03 01:54:48;;;;;;;;;;;7.40;81.80;;;;;;5048919;28;19939;-75
2023/04/03 01:57:14;;;;;;;;;;;7.40;81.90;;;;;;5053804;28;19932;-75
2023/04/03 01:59:41;;;;;;;;;;;7.40;81.90;;;;;;5052841;28;19929;-74
2023/04/03 02:02:08;;;;;;;;;;;7.40;81.90;;;;;;5054508;28;19932;-74
2023/04/03 02:04:34;;;;;;;;;;;7.30;81.90;;;;;;5053634;28;20727;-75
2023/04/03 02:07:02;;;;;;;;;;;7.40;82.00;;;;;;5054075;28;19932;-75
2023/04/03 02:09:29;;;;;;;;;;;7.30;82.00;;;;;;5052999;28;19940;-76
2023/04/03 02:11:55;;;;;;;;;;;7.30;82.00;;;;;;5057430;28;19932;-76
2023/04/03 02:14:23;;;;;;;;;;;7.30;81.90;;;;;;5054271;28;19929;-76
2023/04/03 02:16:49;;;;;;;;;;;7.30;82.00;;;;;;5052949;28;19929;-76
2023/04/03 02:19:16;;;;;;;;;;;7.30;82.00;;;;;;5058487;28;19948;-76
2023/04/03 02:21:43;;;;;;;;;;;7.30;82.00;;;;;;5062387;28;19929;-75
2023/04/03 02:24:11;;;;;;;;;;;7.30;82.00;;;;;;5060783;28;19932;-75
2023/04/03 02:26:37;;;;;;;;;;;7.20;82.00;;;;;;5054533;28;19929;-77
2023/04/03 02:29:04;;;;;;;;;;;7.30;82.10;;;;;;5053141;28;19929;-77
2023/04/03 02:31:30;;;;;;;;;;;7.20;82.20;;;;;;5063162;28;19933;-76
2023/04/03 02:33:57;;;;;;;;;;;7.20;82.20;;;;;;5063166;28;19938;-76
2023/04/03 02:36:23;;;;;;;;;;;7.20;82.30;;;;;;5061112;28;19928;-76
2023/04/03 02:38:50;;;;;;;;;;;7.20;82.30;;;;;;5050402;28;19928;-76
2023/04/03 02:41:18;;;;;;;;;;;7.20;82.40;;;;;;5051076;28;19936;-75
2023/04/03 02:43:44;;;;;;;;;;;7.20;82.40;;;;;;5060739;28;19932;-76
2023/04/03 02:46:11;;;;;;;;;;;7.10;82.50;;;;;;5057019;28;19931;-76
2023/04/03 02:48:38;;;;;;;;;;;7.10;82.50;;;;;;5053749;28;19932;-77
2023/04/03 02:51:04;;;;;;;;;;;7.10;82.50;;;;;;5057494;28;19936;-76
2023/04/03 02:53:31;;;;;;;;;;;7.10;82.60;;;;;;5059539;28;19935;-76
2023/04/03 02:55:58;;;;;;;;;;;7.10;82.70;;;;;;5060014;28;19932;-76
2023/04/03 02:58:25;;;;;;;;;;;7.10;82.80;;;;;;5053221;28;19932;-76
2023/04/03 03:00:52;;;;;;;;;;;7.10;82.80;;;;;;5051436;28;20001;-76
2023/04/03 03:03:18;;;;;;;;;;;7.10;82.80;;;;;;5052694;28;20398;-76
2023/04/03 03:05:45;;;;;;;;;;;7.00;82.70;;;;;;5058415;28;19929;-75
2023/04/03 03:08:12;;;;;;;;;;;7.00;82.80;;;;;;5054165;28;19928;-76
2023/04/03 03:10:38;;;;;;;;;;;7.00;82.80;;;;;;5054432;28;19932;-76
2023/04/03 03:13:05;;;;;;;;;;;7.00;82.70;;;;;;5054351;28;19932;-76
2023/04/03 03:15:33;;;;;;;;;;;6.90;82.70;;;;;;5058328;28;20309;-77
2023/04/03 03:17:59;;;;;;;;;;;7.00;82.70;;;;;;5052963;28;20466;-76
2023/04/03 03:20:26;;;;;;;;;;;6.90;82.60;;;;;;5046359;28;20398;-76
2023/04/03 03:22:52;;;;;;;;;;;6.90;82.60;;;;;;5053321;28;19937;-75
2023/04/03 03:25:19;;;;;;;;;;;6.90;82.60;;;;;;5051648;28;19940;-76
2023/04/03 03:27:45;;;;;;;;;;;6.90;82.60;;;;;;5056310;28;19936;-76
2023/04/03 03:30:12;;;;;;;;;;;6.80;82.40;;;;;;5056440;28;19936;-75
2023/04/03 03:32:40;;;;;;;;;;;6.90;82.50;;;;;;5050107;28;19940;-76
2023/04/03 03:35:07;;;;;;;;;;;6.80;82.40;;;;;;5058455;28;19928;-77
2023/04/03 03:37:34;;;;;;;;;;;6.80;82.40;;;;;;5057585;28;19935;-77
2023/04/03 03:40:00;;;;;;;;;;;6.80;82.40;;;;;;5051587;28;19932;-76
2023/04/03 03:42:27;;;;;;;;;;;6.80;82.50;;;;;;5053627;28;19936;-76
2023/04/03 03:44:53;;;;;;;;;;;6.80;82.50;;;;;;5054326;28;19940;-76
2023/04/03 03:47:20;;;;;;;;;;;6.80;82.50;;;;;;5058475;28;20347;-76
2023/04/03 03:49:48;;;;;;;;;;;6.80;82.50;;;;;;5057648;28;20386;-76
2023/04/03 03:52:15;;;;;;;;;;;6.70;82.40;;;;;;5058525;28;19932;-75
2023/04/03 03:54:41;;;;;;;;;;;6.80;82.60;;;;;;5051652;28;19929;-75
2023/04/03 03:57:08;;;;;;;;;;;6.70;82.50;;;;;;5058505;28;19925;-77
2023/04/03 03:59:35;;;;;;;;;;;6.70;82.60;;;;;;5054177;28;21378;-76
2023/04/03 04:02:02;;;;;;;;;;;6.70;82.70;;;;;;5049774;28;20031;-76
2023/04/03 04:04:28;;;;;;;;;;;6.70;82.70;;;;;;5051586;28;20015;-76
2023/04/03 04:06:56;;;;;;;;;;;6.70;82.70;;;;;;5060597;28;19939;-76
2023/04/03 04:09:23;;;;;;;;;;;6.70;82.70;;;;;;5055517;28;19943;-75
2023/04/03 04:11:49;;;;;;;;;;;6.70;83.40;;;;;;5054049;28;19932;-76
2023/04/03 04:14:16;;;;;;;;;;;6.70;82.70;;;;;;5053765;28;19931;-76
2023/04/03 04:16:42;;;;;;;;;;;6.60;82.70;;;;;;5060502;28;19932;-75
2023/04/03 04:19:09;;;;;;;;;;;6.60;82.80;;;;;;5062573;28;19924;-75
2023/04/03 04:21:36;;;;;;;;;;;6.60;82.90;;;;;;5059689;28;20531;-78
2023/04/03 04:24:04;;;;;;;;;;;6.60;82.80;;;;;;5055571;28;20944;-76
2023/04/03 04:26:30;;;;;;;;;;;6.60;82.80;;;;;;5056044;28;19929;-75
2023/04/03 04:28:57;;;;;;;;;;;6.60;82.90;;;;;;5060908;28;19933;-77
2023/04/03 04:31:23;;;;;;;;;;;6.60;82.90;;;;;;5061308;28;19924;-76
2023/04/03 04:33:50;;;;;;;;;;;6.50;82.90;;;;;;5055768;28;19933;-76
2023/04/03 04:36:16;;;;;;;;;;;6.60;83.00;;;;;;5062548;28;19925;-77
2023/04/03 04:38:43;;;;;;;;;;;6.60;83.10;;;;;;5059601;28;19936;-75
2023/04/03 04:41:11;;;;;;;;;;;6.60;83.20;;;;;;5062660;28;20651;-76
2023/04/03 04:43:37;;;;;;;;;;;6.50;83.20;;;;;;5058431;28;20303;-77
2023/04/03 04:46:05;;;;;;;;;;;6.50;83.20;;;;;;5061267;28;19936;-77
2023/04/03 04:48:31;;;;;;;;;;;6.50;83.30;;;;;;5059542;28;20401;-75
2023/04/03 04:50:58;;;;;;;;;;;6.40;83.20;;;;;;5054620;28;19928;-75
2023/04/03 04:53:24;;;;;;;;;;;6.40;83.30;;;;;;5055050;28;20410;-76
2023/04/03 04:55:51;;;;;;;;;;;6.40;83.30;;;;;;5053622;28;19928;-76
2023/04/03 04:58:19;;;;;;;;;;;6.40;83.30;;;;;;5058165;28;20646;-77
2023/04/03 05:00:46;;;;;;;;;;;6.40;83.30;;;;;;5051144;28;19932;-75
2023/04/03 05:03:13;;;;;;;;;;;6.40;83.30;;;;;;5052483;28;19939;-75
2023/04/03 05:05:39;;;;;;;;;;;6.30;83.20;;;;;;5053406;28;19929;-76
2023/04/03 05:08:08;;;;;;;;;;;6.30;83.10;;;;;;5054994;28;19940;-77
2023/04/03 05:10:35;;;;;;;;;;;6.30;83.10;;;;;;5060504;28;19928;-76
2023/04/03 05:13:01;;;;;;;;;;;6.30;83.10;;;;;;5053650;28;19928;-77
2023/04/03 05:15:29;;;;;;;;;;;6.30;83.10;;;;;;5051985;28;19928;-76
2023/04/03 05:17:56;;;;;;;;;;;6.20;83.10;;;;;;5052687;28;19940;-75
2023/04/03 05:20:22;;;;;;;;;;;6.20;83.00;;;;;;5057127;28;19935;-75
2023/04/03 05:22:49;;;;;;;;;;;6.20;83.00;;;;;;5055972;28;19925;-77
2023/04/03 05:25:15;;;;;;;;;;;6.20;83.00;;;;;;5054144;28;20240;-76
2023/04/03 05:27:42;;;;;;;;;;;6.20;83.00;;;;;;5057023;28;19928;-76
2023/04/03 05:30:09;;;;;;;;;;;6.20;83.10;;;;;;5062557;28;19938;-75
2023/04/03 05:32:37;;;;;;;;;;;6.10;83.00;;;;;;5058595;28;19932;-75
2023/04/03 05:35:03;;;;;;;;;;;6.10;83.10;;;;;;5054110;28;19928;-76
2023/04/03 05:37:30;;;;;;;;;;;6.10;82.90;;;;;;5054076;28;20695;-76
2023/04/03 05:39:57;;;;;;;;;;;6.10;83.70;;;;;;5057186;28;19936;-76
2023/04/03 05:42:23;;;;;;;;;;;6.00;82.90;;;;;;5057686;28;20590;-75
2023/04/03 05:44:50;;;;;;;;;;;6.00;82.90;;;;;;5055674;28;19929;-75
2023/04/03 05:47:16;;;;;;;;;;;6.00;82.90;;;;;;5051840;28;20422;-76
2023/04/03 05:49:45;;;;;;;;;;;5.90;77.90;;;;;;5051860;28;19929;-76
2023/04/03 05:52:18;;;;;;;;;;;5.80;78.10;;;;;;5060303;28;19932;-76
2023/04/03 05:54:47;;;;;;;;;;;5.70;79.20;;;;;;5054008;28;20754;-76
2023/04/03 05:57:14;;;;;;;;;;;5.70;79.90;;;;;;5056023;28;20457;-76
2023/04/03 05:59:41;;;;;;;;;;;5.70;80.30;;;;;;5056777;28;19933;-76
2023/04/03 06:02:07;;;;;;;;;;;5.70;80.60;;;;;;5063244;28;19932;-78
2023/04/03 06:04:34;;;;;;;;;;;5.70;80.80;;;;;;5064058;28;19928;-75
2023/04/03 06:07:02;;;;;;;;;;;5.70;81.00;;;;;;5058584;28;19940;-78
2023/04/03 06:09:29;;;;;;;;;;;5.80;81.20;;;;;;5057232;28;20492;-77
2023/04/03 06:11:58;;;;;;;;;;;5.80;81.30;;;;;;5060705;28;19947;-76
2023/04/03 06:14:25;;;;;;;;;;;5.80;81.40;;;;;;5062723;28;19984;-77
2023/04/03 06:16:52;;;;;;;;;;;5.80;81.60;;;;;;5059277;28;19947;-76
2023/04/03 06:19:18;;;;;;;;;;;5.80;81.60;;;;;;5055287;28;19933;-79
2023/04/03 06:21:45;;;;;;;;;;;5.90;81.80;;;;;;5061592;28;19928;-76
2023/04/03 06:24:14;;;;;;;;;;;5.90;81.80;;;;;;5057175;28;19932;-76
2023/04/03 06:26:41;;;;;;;;;;;5.90;81.90;;;;;;5058550;28;19967;-76
2023/04/03 06:29:08;;;;;;;;;;;5.90;82.00;;;;;;5059284;28;19929;-78
2023/04/03 06:31:36;;;;;;;;;;;5.80;82.00;;;;;;5059983;28;20016;-76
2023/04/03 06:34:02;;;;;;;;;;;5.90;82.10;;;;;;5063495;28;19989;-77
2023/04/03 06:36:29;;;;;;;;;;;5.90;82.20;;;;;;5066475;28;19951;-76
2023/04/03 06:38:56;;;;;;;;;;;5.80;82.80;;;;;;5058427;28;20170;-77
2023/04/03 06:41:26;;;;;;;;;;;5.90;82.20;;;;;;5058761;28;19929;-76
2023/04/03 06:43:52;;;;;;;;;;;5.90;82.20;;;;;;5059799;28;19958;-75
2023/04/03 06:46:20;;;;;;;;;;;5.90;82.20;;;;;;5065084;28;19967;-78
2023/04/03 06:48:47;;;;;;;;;;;5.90;82.20;;;;;;5058377;28;19935;-76
2023/04/03 06:51:21;;;;;;;;;;;5.80;82.20;;;;;;5052734;28;20046;-76
2023/04/03 06:53:47;;;;;;;;;;;5.90;83.10;;;;;;5055583;28;19942;-76
2023/04/03 06:56:14;;;;;;;;;;;5.90;82.30;;;;;;5058062;28;19932;-77
2023/04/03 06:58:43;;;;;;;;;;;5.80;82.30;;;;;;5057222;28;19932;-75
2023/04/03 07:01:10;;;;;;;;;;;5.80;82.40;;;;;;5051280;28;19937;-76
2023/04/03 07:03:37;;;;;;;;;;;5.80;82.30;;;;;;5053012;28;19932;-74
2023/04/03 07:06:03;;;;;;;;;;;5.90;82.30;;;;;;5058135;28;19932;-74
2023/04/03 07:08:30;;;;;;;;;;;5.90;82.30;;;;;;5058083;28;19928;-76
2023/04/03 07:10:57;;;;;;;;;;;5.90;82.20;;;;;;5052417;28;20299;-76
2023/04/03 07:13:24;;;;;;;;;;;5.80;82.10;;;;;;5053728;28;19924;-76
2023/04/03 07:15:52;;;;;;;;;;;5.90;82.20;;;;;;5056412;28;20111;-76
2023/04/03 07:18:19;;;;;;;;;;;5.80;82.10;;;;;;5056127;28;19932;-77
2023/04/03 07:20:45;;;;;;;;;;;5.80;82.10;;;;;;5051931;28;19924;-75
2023/04/03 07:23:12;;;;;;;;;;;5.80;82.10;;;;;;5051635;28;19928;-76
2023/04/03 07:25:43;;;;;;;;;;;5.80;82.10;;;;;;5057797;28;20643;-76
2023/04/03 07:28:09;;;;;;;;;;;5.80;82.10;;;;;;5053288;28;20174;-76
2023/04/03 07:30:42;;;;;;;;;;;5.80;82.20;;;;;;5054572;28;19936;-77
2023/04/03 07:33:10;;;;;;;;;;;5.80;82.20;;;;;;5049816;28;20294;-76
2023/04/03 07:35:37;;;;;;;;;;;5.80;82.30;;;;;;5057071;28;19932;-76
2023/04/03 07:38:03;;;;;;;;;;;5.80;82.40;;;;;;5059419;28;20002;-77
2023/04/03 07:40:30;;;;;;;;;;;5.80;82.40;;;;;;5053201;28;19958;-76
2023/04/03 07:42:57;;;;;;;;;;;5.80;82.50;;;;;;5056162;28;19933;-77
2023/04/03 07:45:24;;;;;;;;;;;5.80;82.50;;;;;;5056472;28;19939;-76
2023/04/03 07:47:50;;;;;;;;;;;5.80;82.50;;;;;;5058326;28;19932;-76
2023/04/03 07:50:18;;;;;;;;;;;5.80;82.60;;;;;;5060883;28;19939;-78
2023/04/03 07:52:46;;;;;;;;;;;5.80;82.70;;;;;;5053872;28;19928;-76
2023/04/03 07:55:12;;;;;;;;;;;5.80;82.70;;;;;;5054779;28;19932;-76
2023/04/03 07:57:40;;;;;;;;;;;5.80;82.70;;;;;;5056014;28;19955;-76
2023/04/03 08:00:07;;;;;;;;;;;5.80;82.80;;;;;;5052351;28;19929;-77
2023/04/03 08:02:33;;;;;;;;;;;5.80;82.70;;;;;;5043475;28;19929;-77
2023/04/03 08:05:00;;;;;;;;;;;5.80;82.70;;;;;;5046123;28;19936;-77
2023/04/03 08:07:28;;;;;;;;;;;5.80;82.70;;;;;;5049221;28;20761;-76
2023/04/03 08:09:55;;;;;;;;;;;5.80;82.70;;;;;;5047727;28;19928;-76
2023/04/03 08:12:21;;;;;;;;;;;5.80;82.70;;;;;;5039783;28;19932;-77
2023/04/03 08:14:48;;;;;;;;;;;5.90;82.70;;;;;;5049295;28;20382;-77
2023/04/03 08:17:14;;;;;;;;;;;5.90;82.70;;;;;;5043041;28;19951;-76
2023/04/03 08:19:41;;;;;;;;;;;5.90;82.70;;;;;;5047232;28;21890;-76
2023/04/03 08:22:08;;;;;;;;;;;5.90;82.70;;;;;;5048531;28;20702;-76
2023/04/03 08:24:35;;;;;;;;;;;5.90;82.60;;;;;;5049984;28;19947;-77
2023/04/03 08:27:02;;;;;;;;;;;5.90;82.60;;;;;;5047066;28;19940;-78
2023/04/03 08:29:29;;;;;;;;;;;5.90;82.50;;;;;;5054280;28;20373;-77
2023/04/03 08:31:55;;;;;;;;;;;5.90;82.40;;;;;;5051377;28;19951;-76
2023/04/03 08:34:22;;;;;;;;;;;6.00;82.30;;;;;;5053573;28;19944;-76
2023/04/03 08:36:48;;;;;;;;;;;6.00;82.20;;;;;;5050515;28;19929;-74
2023/04/03 08:39:15;;;;;;;;;;;6.10;82.20;;;;;;5056352;28;19928;-75
2023/04/03 08:41:46;;;;;;;;;;;6.10;82.00;;;;;;5061217;28;20684;-69
2023/04/03 08:44:16;;;;;;;;;;;6.20;81.90;;;;;;5061234;28;19932;-71
2023/04/03 08:46:48;;;;;;;;;;;6.20;81.80;;;;;;5054339;28;20031;-74
2023/04/03 08:49:19;;;;;;;;;;;6.20;81.60;;;;;;5059041;28;20283;-72
2023/04/03 08:51:47;;;;;;;;;;;6.20;81.50;;;;;;5053461;28;19928;-73
2023/04/03 08:54:18;;;;;;;;;;;6.20;81.30;;;;;;5055413;28;20007;-70
2023/04/03 08:56:46;;;;;;;;;;;6.30;81.30;;;;;;5050150;28;19928;-72
2023/04/03 08:59:14;;;;;;;;;;;6.30;81.10;;;;;;5053533;28;19928;-71
2023/04/03 09:01:42;;;;;;;;;;;6.30;80.90;;;;;;5051939;28;20271;-70
2023/04/03 09:04:11;;;;;;;;;;;6.40;80.70;;;;;;5054914;28;19929;-72
2023/04/03 09:06:39;;;;;;;;;;;6.40;80.40;;;;;;5056067;28;19940;-73
2023/04/03 09:09:13;;;;;;;;;;;6.40;80.00;;;;;;5056904;28;20396;-74
2023/04/03 09:11:46;;;;;;;;;;;6.50;80.10;;;;;;5059126;28;19929;-72
2023/04/03 09:14:16;;;;;;;;;;;6.50;80.00;;;;;;5060877;28;19928;-75
2023/04/03 09:16:47;;;;;;;;;;;6.60;79.80;;;;;;5058215;28;19994;-71
2023/04/03 09:19:20;;;;;;;;;;;6.70;79.40;;;;;;5057847;28;20311;-71
2023/04/03 09:21:46;;;;;;;;;;;6.70;78.90;;;;;;5056260;28;19935;-72
2023/04/03 09:24:14;;;;;;;;;;;6.80;78.30;;;;;;5055825;28;19929;-72
2023/04/03 09:26:44;;;;;;;;;;;6.90;78.20;;;;;;5055297;28;19972;-75
2023/04/03 09:29:13;;;;;;;;;;;6.90;77.80;;;;;;5054996;28;19940;-70
2023/04/03 09:31:43;;;;;;;;;;;7.00;77.60;;;;;;5055336;28;19932;-72
2023/04/03 09:34:21;;;;;;;;;;;7.10;77.30;;;;;;5052967;28;19928;-71
2023/04/03 09:36:49;;;;;;;;;;;7.20;76.70;;;;;;5057172;28;19933;-73
2023/04/03 09:39:16;;;;;;;;;;;7.30;76.90;;;;;;5053166;28;20019;-73
2023/04/03 09:41:43;;;;;;;;;;;7.30;76.50;;;;;;5053930;28;19940;-71
2023/04/03 09:44:23;;;;;;;;;;;7.40;76.60;;;;;;5051831;28;19967;-73
2023/04/03 09:46:51;;;;;;;;;;;7.50;76.20;;;;;;5052636;28;19935;-72
2023/04/03 09:49:18;;;;;;;;;;;7.60;76.10;;;;;;5058687;28;19928;-73
2023/04/03 09:51:45;;;;;;;;;;;7.60;75.60;;;;;;5055028;28;19929;-72
2023/04/03 09:54:32;;;;;;;;;;;7.70;75.60;;;;;;5052963;28;19928;-71
2023/04/03 09:57:01;;;;;;;;;;;7.70;75.70;;;;;;5053733;28;19932;-74
2023/04/03 09:59:28;;;;;;;;;;;7.80;74.80;;;;;;5059560;28;19936;-73
2023/04/03 10:02:00;;;;;;;;;;;7.80;74.40;;;;;;5052180;28;20026;-71
2023/04/03 10:04:37;;;;;;;;;;;7.90;74.80;;;;;;5055094;28;20430;-71
2023/04/03 10:07:03;;;;;;;;;;;8.00;74.90;;;;;;5049756;28;20279;-73
2023/04/03 10:09:31;;;;;;;;;;;8.00;74.60;;;;;;5045596;28;19939;-77
2023/04/03 10:11:59;;;;;;;;;;;8.00;73.50;;;;;;5056139;28;19941;-77
2023/04/03 10:14:26;;;;;;;;;;;8.00;72.70;;;;;;5055736;28;19987;-76
2023/04/03 10:16:57;;;;;;;;;;;8.00;72.90;;;;;;5055265;28;19968;-76
2023/04/03 10:19:33;;;;;;;;;;;8.00;72.20;;;;;;5061213;28;20358;-77
2023/04/03 10:22:03;;;;;;;;;;;8.10;72.10;;;;;;5054168;28;19935;-78
2023/04/03 10:24:36;;;;;;;;;;;8.00;72.30;;;;;;5054049;28;19943;-77
2023/04/03 10:27:08;;;;;;;;;;;8.00;72.50;;;;;;5049551;28;20019;-76
2023/04/03 10:29:38;;;;;;;;;;;8.00;72.60;;;;;;5050747;28;19924;-78
2023/04/03 10:32:13;;;;;;;;;;;8.00;72.70;;;;;;5053000;28;19935;-77
2023/04/03 10:34:43;;;;;;;;;;;8.00;73.60;;;;;;5052537;28;20015;-76
2023/04/03 10:37:15;;;;;;;;;;;8.00;73.50;;;;;;5053186;28;20054;-77
2023/04/03 10:39:45;;;;;;;;;;;8.00;73.50;;;;;;5050587;28;19931;-78
2023/04/03 10:42:15;;;;;;;;;;;8.00;73.50;;;;;;5051659;28;19928;-77
2023/04/03 10:44:48;;;;;;;;;;;8.00;73.60;;;;;;5055269;28;20027;-77
2023/04/03 10:47:19;;;;;;;;;;;7.90;72.30;;;;;;5053939;28;19925;-76
2023/04/03 10:49:51;;;;;;;;;;;7.90;72.40;;;;;;5051818;28;20043;-76
2023/04/03 10:52:20;;;;;;;;;;;8.00;72.50;;;;;;5055494;28;20140;-79
2023/04/03 10:54:49;;;;;;;;;;;8.00;72.90;;;;;;5051472;28;19932;-76
2023/04/03 10:57:16;;;;;;;;;;;8.00;73.10;;;;;;5049319;28;19935;-77
2023/04/03 10:59:45;;;;;;;;;;;8.00;72.80;;;;;;5052709;28;19932;-76
2023/04/03 11:02:16;;;;;;;;;;;8.00;73.00;;;;;;5055493;28;19924;-76
2023/04/03 11:04:44;;;;;;;;;;;8.00;72.60;;;;;;5049398;28;20465;-77
2023/04/03 11:07:16;;;;;;;;;;;8.00;72.60;;;;;;5056634;28;20035;-78
2023/04/03 11:09:45;;;;;;;;;;;8.00;72.20;;;;;;5053262;28;19928;-77
2023/04/03 11:12:13;;;;;;;;;;;8.00;71.30;;;;;;5053849;28;19928;-77
2023/04/03 11:14:40;;;;;;;;;;;8.00;71.70;;;;;;5042132;28;19928;-76
2023/04/03 11:17:11;;;;;;;;;;;8.00;71.20;;;;;;5047186;28;19977;-77
2023/04/03 11:19:40;;;;;;;;;;;8.10;71.60;;;;;;5050214;28;19928;-77
2023/04/03 11:22:11;;;;;;;;;;;8.10;72.30;;;;;;5051096;28;19963;-79
2023/04/03 11:24:42;;;;;;;;;;;8.10;71.90;;;;;;5047551;28;19936;-79
2023/04/03 11:27:16;;;;;;;;;;;8.10;71.80;;;;;;5051142;28;21270;-77
2023/04/03 11:29:45;;;;;;;;;;;8.10;71.00;;;;;;5056734;28;20427;-77
2023/04/03 11:32:21;;;;;;;;;;;8.10;70.60;;;;;;5046891;28;20445;-78
2023/04/03 11:34:49;;;;;;;;;;;8.20;70.30;;;;;;5054575;28;19928;-76
2023/04/03 11:37:18;;;;;;;;;;;8.20;70.50;;;;;;5047820;28;19939;-77
2023/04/03 11:39:52;;;;;;;;;;;8.20;71.30;;;;;;5050895;28;19943;-76
2023/04/03 11:42:34;;;;;;;;;;;8.20;70.70;;;;;;5055201;28;19972;-78
2023/04/03 11:45:25;;;;;;;;;;;8.20;70.80;;;;;;5048258;28;19932;-77
2023/04/03 11:47:52;;;;;;;;;;;8.20;69.90;;;;;;5049916;28;19971;-78
2023/04/03 11:50:32;;;;;;;;;;;8.30;71.00;;;;;;5044785;28;19929;-78
2023/04/03 11:53:00;;;;;;;;;;;8.30;71.00;;;;;;5050541;28;19928;-77
2023/04/03 11:55:41;;;;;;;;;;;8.30;70.00;;;;;;5046185;28;19932;-77
2023/04/03 11:58:14;;;;;;;;;;;8.30;69.50;;;;;;5034673;28;19932;-77
2023/04/03 12:00:47;;;;;;;;;;;8.30;70.10;;;;;;5049696;28;20405;-77
2023/04/03 12:03:32;;;;;;;;;;;8.40;70.30;;;;;;5051579;28;19933;-77
2023/04/03 12:06:18;;;;;;;;;;;8.40;70.30;;;;;;5052813;28;19936;-78
2023/04/03 12:08:47;;;;;;;;;;;8.40;69.70;;;;;;5047044;28;19936;-76
2023/04/03 12:11:25;;;;;;;;;;;8.40;69.30;;;;;;5041502;28;19935;-78
2023/04/03 12:14:04;;;;;;;;;;;8.40;69.40;;;;;;5052901;28;20372;-77
2023/04/03 12:16:33;;;;;;;;;;;8.40;70.00;;;;;;5052161;28;19928;-77
2023/04/03 12:19:02;;;;;;;;;;;8.50;69.00;;;;;;5055125;28;19933;-77
2023/04/03 12:21:47;;;;;;;;;;;8.50;69.00;;;;;;5054785;28;19948;-76
2023/04/03 12:24:26;;;;;;;;;;;8.50;69.40;;;;;;5051336;28;20382;-77
2023/04/03 12:27:02;;;;;;;;;;;8.50;70.10;;;;;;5050086;28;19936;-77
2023/04/03 12:29:33;;;;;;;;;;;8.50;69.50;;;;;;5056430;28;20378;-75
2023/04/03 12:32:08;;;;;;;;;;;8.60;69.10;;;;;;5052997;28;19929;-76
2023/04/03 12:34:52;;;;;;;;;;;8.60;69.70;;;;;;5052611;28;19940;-78
2023/04/03 12:37:24;;;;;;;;;;;8.60;68.70;;;;;;5059818;28;20301;-78
2023/04/03 12:40:02;;;;;;;;;;;8.60;69.00;;;;;;5057973;28;19933;-77
2023/04/03 12:42:42;;;;;;;;;;;8.60;68.90;;;;;;5063146;28;19929;-77
2023/04/03 12:45:13;;;;;;;;;;;8.60;68.60;;;;;;5045305;28;19935;-78
2023/04/03 12:47:43;;;;;;;;;;;8.70;68.70;;;;;;5048039;28;19935;-76
2023/04/03 12:50:17;;;;;;;;;;;8.70;69.00;;;;;;5042233;28;19933;-77
2023/04/03 12:52:46;;;;;;;;;;;8.70;68.20;;;;;;5043717;28;19950;-79
2023/04/03 12:55:17;;;;;;;;;;;8.70;68.10;;;;;;5043295;28;19933;-77
2023/04/03 12:57:43;;;;;;;;;;;8.70;68.90;;;;;;5047659;28;20416;-75
2023/04/03 13:00:20;;;;;;;;;;;8.70;68.50;;;;;;5048223;28;20221;-76
2023/04/03 13:02:47;;;;;;;;;;;8.70;68.20;;;;;;5038866;28;19943;-77
2023/04/03 13:05:16;;;;;;;;;;;8.80;68.80;;;;;;5042120;28;19939;-80
2023/04/03 13:07:43;;;;;;;;;;;8.70;67.90;;;;;;5042183;28;19932;-76
2023/04/03 13:10:15;;;;;;;;;;;8.80;66.70;;;;;;5039280;28;19933;-75
2023/04/03 13:12:51;;;;;;;;;;;8.80;67.30;;;;;;5033011;28;20442;-76
2023/04/03 13:15:20;;;;;;;;;;;8.90;67.50;;;;;;5029639;28;19940;-73
2023/04/03 13:17:48;;;;;;;;;;;8.90;67.70;;;;;;5035779;28;19939;-73
2023/04/03 13:20:18;;;;;;;;;;;9.00;67.40;;;;;;5031256;28;19941;-72
2023/04/03 13:22:48;;;;;;;;;;;9.00;66.90;;;;;;5039166;28;20453;-71
2023/04/03 13:25:16;;;;;;;;;;;9.00;65.30;;;;;;5034900;28;19932;-73
2023/04/03 13:27:43;;;;;;;;;;;9.00;65.00;;;;;;5038215;28;19928;-72
2023/04/03 13:30:20;;;;;;;;;;;9.10;64.40;;;;;;5040227;28;19932;-73
2023/04/03 13:32:47;;;;;;;;;;;9.10;65.30;;;;;;5042682;28;19929;-73
2023/04/03 13:35:34;;;;;;;;;;;9.10;65.00;;;;;;5041362;28;19936;-75
2023/04/03 13:38:02;;;;;;;;;;;9.10;64.60;;;;;;5040545;28;19933;-72
2023/04/03 13:40:28;;;;;;;;;;;9.10;64.50;;;;;;5042579;28;19936;-73
2023/04/03 13:43:02;;;;;;;;;;;9.10;64.90;;;;;;5041412;28;19929;-72
2023/04/03 13:45:31;;;;;;;;;;;9.10;64.90;;;;;;5042246;28;19940;-73
2023/04/03 13:48:08;;;;;;;;;;;9.10;65.20;;;;;;5039056;28;19933;-74
2023/04/03 13:50:50;;;;;;;;;;;9.10;65.40;;;;;;5041456;28;20064;-73
2023/04/03 13:53:17;;;;;;;;;;;9.00;65.90;;;;;;5041217;28;19936;-74
2023/04/03 13:55:55;;;;;;;;;;;9.10;65.50;;;;;;5030627;28;19935;-72
2023/04/03 13:58:22;;;;;;;;;;;9.10;66.40;;;;;;5040993;28;19959;-73
2023/04/03 14:00:51;;;;;;;;;;;9.00;66.40;;;;;;5039391;28;20421;-74
2023/04/03 14:03:21;;;;;;;;;;;9.00;65.80;;;;;;5041316;28;20046;-73
2023/04/03 14:05:47;;;;;;;;;;;9.00;66.10;;;;;;5039364;28;19935;-73
2023/04/03 14:08:14;;;;;;;;;;;9.00;65.50;;;;;;5040320;28;20390;-72
2023/04/03 14:10:41;;;;;;;;;;;9.00;65.30;;;;;;5048489;28;20047;-72
2023/04/03 14:13:10;;;;;;;;;;;9.00;66.10;;;;;;5050795;28;20310;-74
2023/04/03 14:15:36;;;;;;;;;;;8.90;66.70;;;;;;5049354;28;19935;-73
2023/04/03 14:18:04;;;;;;;;;;;9.00;65.90;;;;;;5053018;28;19935;-70
2023/04/03 14:20:31;;;;;;;;;;;9.00;66.10;;;;;;5053363;28;19936;-72
2023/04/03 14:22:58;;;;;;;;;;;9.00;66.20;;;;;;5054883;28;19932;-71
2023/04/03 14:25:25;;;;;;;;;;;8.90;66.10;;;;;;5051447;28;19932;-71
2023/04/03 14:27:53;;;;;;;;;;;9.00;65.70;;;;;;5055282;28;19935;-71
2023/04/03 14:30:21;;;;;;;;;;;9.00;65.00;;;;;;5054998;28;20016;-74
2023/04/03 14:32:48;;;;;;;;;;;9.00;64.60;;;;;;5054347;28;19990;-72
2023/04/03 14:35:18;;;;;;;;;;;8.90;65.10;;;;;;5049841;28;19935;-72
2023/04/03 14:37:45;;;;;;;;;;;9.00;65.60;;;;;;5058440;28;19928;-72
2023/04/03 14:40:14;;;;;;;;;;;8.90;65.80;;;;;;5051791;28;19928;-72